Strona główna
METAR-TAF:

METAR-TAF

Lotnisko :

Area_Regional_Airport

South Haven, Michigan, Stany Zjednoczone

Szerokość geograficzna: 42-21-03N, Długość geograficzna: 086-15-22W, wysokość: 203 m

Aktualna obserwacja pogody

Raport powstał 17 minut temu, godzina 02:17 UTC
Cisza
Temperatura 24°C
Wilgotność 94%
Ciśnienie 1013 hPa
Widzialność: 16.1 km
bezchmurnie

METAR: KLWA 180217Z AUTO 00000KT 10SM CLR 24/23 A2991 RMK AO2 T02420225

czas: 22:34 (02:34 UTC)


TAF: brakujący

Obserwacja i prognoza pogody dla ponad 4000 lotnisk (raport METAR i TAF).

Dostępne stacje oznaczono żółtymi i czerwonymi punktami na mapie.

Najedź kursorem aby zobaczyć nazwę stacji.

Kliknij aby zobaczyć obserwacje i prognozy pogody.

Aby zmienić mapę: kliknij na zielony przycisk z czarnym krzyżykiem, aby powiększyć; na zielony przycisk z myślnikiem, aby pomniejszyć; na zielone strzałki, aby przejść do map sąsiednich.


METAR-TAF: